Time;durP1;ratioP1;P1;durP2;ratioP2;P2;SDS_P1;SDS_P2;PMS_P1;PMS_P2;Temp;Humidity;BMP_temperature;BMP_pressure;BME280_temperature;BME280_humidity;BME280_pressure;Samples;Min_cycle;Max_cycle;Signal;HPM_P1;HPM_P2
2023/07/30 00:01:48;;;;;;;7.50;5.80;;;19.90;1.00;;;;;;4989681;28;20187;-76
2023/07/30 00:04:13;;;;;;;10.43;6.67;;;19.90;1.00;;;;;;4991359;28;20206;-76
2023/07/30 00:06:39;;;;;;;7.43;5.90;;;19.90;1.00;;;;;;4991510;28;20223;-76
2023/07/30 00:09:04;;;;;;;9.00;6.13;;;20.00;1.00;;;;;;4990564;28;20186;-75
2023/07/30 00:11:30;;;;;;;10.53;6.60;;;20.00;1.00;;;;;;4992139;28;20179;-76
2023/07/30 00:13:55;;;;;;;8.73;6.50;;;20.10;1.00;;;;;;4991218;28;20644;-75
2023/07/30 00:16:21;;;;;;;10.47;6.20;;;20.00;1.00;;;;;;4990199;28;20661;-76
2023/07/30 00:18:46;;;;;;;11.80;6.27;;;20.00;1.00;;;;;;4991471;28;20183;-76
2023/07/30 00:21:11;;;;;;;9.37;6.00;;;20.00;1.00;;;;;;4989332;28;20527;-76
2023/07/30 00:23:37;;;;;;;7.97;6.40;;;20.00;1.00;;;;;;4990744;28;20249;-76
2023/07/30 00:26:02;;;;;;;11.20;6.83;;;20.00;1.00;;;;;;4991501;28;20225;-75
2023/07/30 00:28:28;;;;;;;9.80;6.40;;;20.00;1.00;;;;;;4991776;28;20355;-74
2023/07/30 00:30:53;;;;;;;12.67;8.00;;;19.90;1.00;;;;;;4991243;28;20193;-75
2023/07/30 00:33:19;;;;;;;12.70;5.80;;;20.00;1.00;;;;;;4991302;28;20191;-76
2023/07/30 00:35:44;;;;;;;8.40;6.60;;;20.00;1.00;;;;;;4990698;28;20188;-75
2023/07/30 00:38:10;;;;;;;9.20;6.00;;;20.00;1.00;;;;;;4991051;28;20243;-76
2023/07/30 00:40:41;;;;;;;8.20;5.70;;;20.00;1.00;;;;;;4991991;28;20187;-77
2023/07/30 00:43:07;;;;;;;9.67;5.80;;;19.90;1.00;;;;;;4991550;28;20278;-75
2023/07/30 00:45:34;;;;;;;8.83;6.00;;;19.90;1.00;;;;;;4991808;28;20972;-75
2023/07/30 00:48:00;;;;;;;7.67;6.23;;;19.80;1.00;;;;;;4989551;28;20242;-75
2023/07/30 00:50:25;;;;;;;7.90;5.80;;;19.80;1.00;;;;;;4990664;28;20940;-75
2023/07/30 00:52:51;;;;;;;8.67;5.90;;;19.80;1.00;;;;;;4989265;28;20445;-77
2023/07/30 00:55:17;;;;;;;9.47;4.53;;;19.80;1.00;;;;;;4983395;28;20667;-75
2023/07/30 00:57:43;;;;;;;5.60;4.27;;;19.70;1.00;;;;;;4991327;28;20210;-75
2023/07/30 01:00:09;;;;;;;5.40;3.80;;;19.60;1.00;;;;;;4991396;28;20418;-76
2023/07/30 01:02:38;;;;;;;9.57;4.43;;;19.60;1.00;;;;;;4990554;28;20651;-74
2023/07/30 01:05:03;;;;;;;5.10;4.13;;;19.60;1.00;;;;;;4990109;28;20983;-75
2023/07/30 01:07:32;;;;;;;8.33;4.43;;;19.50;1.00;;;;;;4990649;28;20461;-75
2023/07/30 01:10:00;;;;;;;8.43;4.60;;;19.50;1.00;;;;;;4991120;28;20179;-75
2023/07/30 01:12:26;;;;;;;5.87;4.63;;;19.50;1.00;;;;;;4988627;28;20443;-75
2023/07/30 01:14:54;;;;;;;10.70;4.97;;;19.50;1.00;;;;;;4990104;28;20446;-75
2023/07/30 01:17:20;;;;;;;7.67;4.50;;;19.50;1.00;;;;;;4983844;28;20454;-77
2023/07/30 01:19:45;;;;;;;6.47;4.03;;;19.50;1.00;;;;;;4990575;28;20426;-76
2023/07/30 01:22:10;;;;;;;5.70;3.97;;;19.50;1.00;;;;;;4989319;28;20199;-75
2023/07/30 01:24:36;;;;;;;5.03;3.93;;;19.50;1.00;;;;;;4990410;28;20191;-75
2023/07/30 01:27:06;;;;;;;6.10;4.50;;;19.50;1.00;;;;;;4990291;28;20564;-77
2023/07/30 01:29:37;;;;;;;6.17;3.70;;;19.40;1.00;;;;;;4990472;28;20186;-77
2023/07/30 01:32:06;;;;;;;5.10;3.43;;;19.40;1.00;;;;;;4989927;28;20496;-76
2023/07/30 01:34:35;;;;;;;8.83;3.70;;;19.50;1.00;;;;;;4991221;28;20528;-76
2023/07/30 01:37:02;;;;;;;4.60;3.13;;;19.40;1.00;;;;;;4990239;28;20789;-76
2023/07/30 01:39:28;;;;;;;5.43;3.37;;;19.30;1.00;;;;;;4992537;28;20413;-75
2023/07/30 01:41:54;;;;;;;7.53;3.70;;;19.30;1.00;;;;;;4990481;28;20419;-75
2023/07/30 01:44:20;;;;;;;5.17;3.57;;;19.30;1.00;;;;;;4989424;28;20859;-75
2023/07/30 01:46:46;;;;;;;6.90;4.00;;;19.40;1.00;;;;;;4988840;28;20476;-75
2023/07/30 01:49:11;;;;;;;4.90;3.50;;;19.40;1.00;;;;;;4990056;28;20191;-76
2023/07/30 01:51:37;;;;;;;4.77;3.27;;;19.40;1.00;;;;;;4988636;28;20194;-75
2023/07/30 01:54:02;;;;;;;5.90;3.60;;;19.40;1.00;;;;;;4989694;28;20187;-76
2023/07/30 01:56:28;;;;;;;5.17;3.47;;;19.30;1.00;;;;;;4989857;28;20214;-76
2023/07/30 01:58:54;;;;;;;5.13;3.30;;;19.40;1.00;;;;;;4990276;28;20190;-76
2023/07/30 02:01:19;;;;;;;5.37;3.37;;;19.40;1.00;;;;;;4990044;28;20183;-76
2023/07/30 02:03:45;;;;;;;4.70;3.10;;;19.30;1.00;;;;;;4988930;28;21009;-77
2023/07/30 02:06:11;;;;;;;5.83;3.50;;;19.30;1.00;;;;;;4989373;28;20183;-75
2023/07/30 02:08:37;;;;;;;6.47;2.93;;;19.30;1.00;;;;;;4990125;28;20175;-76
2023/07/30 02:11:02;;;;;;;5.90;3.40;;;19.30;1.00;;;;;;4990174;28;20433;-75
2023/07/30 02:13:28;;;;;;;5.50;3.20;;;19.20;1.00;;;;;;4989862;28;20183;-77
2023/07/30 02:15:53;;;;;;;6.53;3.23;;;19.20;1.00;;;;;;4989985;28;20703;-76
2023/07/30 02:18:19;;;;;;;7.40;3.80;;;19.20;1.00;;;;;;4988663;28;20261;-76
2023/07/30 02:20:44;;;;;;;5.40;3.30;;;19.20;1.00;;;;;;4989440;28;20195;-76
2023/07/30 02:23:10;;;;;;;4.90;3.20;;;19.20;1.00;;;;;;4987585;28;20298;-76
2023/07/30 02:25:37;;;;;;;5.60;3.47;;;19.20;1.00;;;;;;4989955;28;20591;-75
2023/07/30 02:28:02;;;;;;;9.13;3.37;;;19.30;1.00;;;;;;4988296;28;20219;-76
2023/07/30 02:30:28;;;;;;;6.33;3.33;;;19.30;1.00;;;;;;4990197;28;20472;-76
2023/07/30 02:32:54;;;;;;;5.80;3.40;;;19.30;1.00;;;;;;4989733;28;20204;-75
2023/07/30 02:35:19;;;;;;;5.30;3.57;;;22.30;1.00;;;;;;4988518;28;20692;-76
2023/07/30 02:37:45;;;;;;;5.40;3.30;;;19.30;1.00;;;;;;4989456;28;20207;-78
2023/07/30 02:40:11;;;;;;;5.97;3.37;;;19.30;1.00;;;;;;4989315;28;20217;-76
2023/07/30 02:42:36;;;;;;;7.10;3.43;;;19.30;1.00;;;;;;4987912;28;20218;-75
2023/07/30 02:45:02;;;;;;;6.83;3.80;;;19.30;1.00;;;;;;4989648;28;20800;-76
2023/07/30 02:47:28;;;;;;;9.13;3.57;;;19.30;1.00;;;;;;4989732;28;20194;-76
2023/07/30 02:49:53;;;;;;;4.97;3.50;;;19.30;1.00;;;;;;4989057;28;21347;-77
2023/07/30 02:52:19;;;;;;;5.00;3.40;;;19.30;1.00;;;;;;4988486;28;20191;-75
2023/07/30 02:54:44;;;;;;;5.90;3.70;;;19.40;1.00;;;;;;4989665;28;20601;-76
2023/07/30 02:57:11;;;;;;;5.93;3.73;;;19.40;1.00;;;;;;4989272;28;20290;-76
2023/07/30 02:59:37;;;;;;;6.60;4.10;;;19.30;1.00;;;;;;4989927;28;20180;-76
2023/07/30 03:02:04;;;;;;;7.97;3.90;;;19.30;1.00;;;;;;4989792;28;20875;-75
2023/07/30 03:04:30;;;;;;;6.40;3.40;;;19.40;1.00;;;;;;4982058;28;20422;-77
2023/07/30 03:06:56;;;;;;;8.17;3.37;;;19.40;1.00;;;;;;4988607;28;20462;-77
2023/07/30 03:09:22;;;;;;;6.90;4.17;;;19.40;1.00;;;;;;4989352;28;20175;-75
2023/07/30 03:11:48;;;;;;;6.27;3.50;;;19.50;1.00;;;;;;4989738;28;20174;-76
2023/07/30 03:14:14;;;;;;;5.57;3.10;;;19.50;1.00;;;;;;4989439;28;20851;-76
2023/07/30 03:16:41;;;;;;;5.57;3.60;;;19.60;1.00;;;;;;4989733;28;20462;-76
2023/07/30 03:19:06;;;;;;;7.23;3.80;;;19.60;1.00;;;;;;4989332;28;20512;-75
2023/07/30 03:21:32;;;;;;;4.10;3.43;;;19.50;1.00;;;;;;4984583;28;20187;-77
2023/07/30 03:23:57;;;;;;;6.77;3.60;;;19.50;1.00;;;;;;4989364;28;20563;-76
2023/07/30 03:26:23;;;;;;;7.00;3.60;;;19.60;1.00;;;;;;4989127;28;20183;-76
2023/07/30 03:28:48;;;;;;;5.20;4.10;;;19.60;1.00;;;;;;4988769;28;20184;-75
2023/07/30 03:31:14;;;;;;;9.43;4.70;;;19.60;1.00;;;;;;4993071;28;20185;-76
2023/07/30 03:33:43;;;;;;;5.27;4.40;;;19.60;1.00;;;;;;4992270;28;20278;-76
2023/07/30 03:36:09;;;;;;;9.13;4.40;;;;;;;;;;4995989;28;20179;-76
2023/07/30 03:38:35;;;;;;;10.03;3.97;;;19.60;1.00;;;;;;4992620;28;20971;-75
2023/07/30 03:41:00;;;;;;;7.87;4.73;;;19.60;1.00;;;;;;4993094;28;20422;-76
2023/07/30 03:43:26;;;;;;;6.87;4.67;;;19.60;1.00;;;;;;4998786;28;20211;-77
2023/07/30 03:45:51;;;;;;;8.33;5.00;;;19.60;1.00;;;;;;4993057;28;20176;-76
2023/07/30 03:48:17;;;;;;;5.83;4.40;;;19.70;1.00;;;;;;4991749;28;20572;-76
2023/07/30 03:50:42;;;;;;;9.80;4.87;;;19.70;1.00;;;;;;4991514;28;20254;-78
2023/07/30 03:53:07;;;;;;;6.23;4.83;;;19.70;1.00;;;;;;4991400;28;20244;-80
2023/07/30 03:55:33;;;;;;;8.70;4.43;;;19.70;1.00;;;;;;4984872;28;20953;-76
2023/07/30 03:57:58;;;;;;;11.10;4.83;;;19.70;1.00;;;;;;4992505;28;20213;-76
2023/07/30 04:00:24;;;;;;;6.20;4.80;;;19.80;1.00;;;;;;4992233;28;20233;-76
2023/07/30 04:02:49;;;;;;;8.20;4.77;;;19.80;1.00;;;;;;4992279;28;20218;-77
2023/07/30 04:05:15;;;;;;;9.07;5.00;;;19.80;1.00;;;;;;4992306;28;20707;-76
2023/07/30 04:07:40;;;;;;;9.90;5.03;;;19.80;1.00;;;;;;4989631;28;20215;-76
2023/07/30 04:10:06;;;;;;;7.00;5.20;;;19.70;1.00;;;;;;4992115;28;20278;-76
2023/07/30 04:12:32;;;;;;;6.10;4.90;;;19.80;1.00;;;;;;4992316;28;20701;-76
2023/07/30 04:14:57;;;;;;;12.63;5.27;;;19.80;1.00;;;;;;4992281;28;20186;-76
2023/07/30 04:17:23;;;;;;;11.13;5.60;;;19.80;1.00;;;;;;4990605;28;20202;-76
2023/07/30 04:19:48;;;;;;;7.07;5.40;;;19.80;1.00;;;;;;4991498;28;20585;-76
2023/07/30 04:22:14;;;;;;;8.30;4.80;;;19.70;1.00;;;;;;4990421;28;20210;-76
2023/07/30 04:24:40;;;;;;;8.17;5.20;;;19.70;1.00;;;;;;4991765;28;20183;-76
2023/07/30 04:27:05;;;;;;;7.93;5.10;;;19.70;1.00;;;;;;4992397;28;20187;-76
2023/07/30 04:29:31;;;;;;;8.33;5.13;;;19.70;1.00;;;;;;4992073;28;20179;-75
2023/07/30 04:31:56;;;;;;;6.80;5.17;;;19.60;1.00;;;;;;4991829;28;20662;-76
2023/07/30 04:34:22;;;;;;;8.43;5.27;;;19.70;1.00;;;;;;4990706;28;20258;-76
2023/07/30 04:36:47;;;;;;;8.43;5.47;;;19.60;1.00;;;;;;4991276;28;20298;-76
2023/07/30 04:39:13;;;;;;;24.53;5.60;;;19.60;1.00;;;;;;4991666;28;20191;-74
2023/07/30 04:41:38;;;;;;;9.00;5.03;;;19.60;1.00;;;;;;4991158;28;20225;-78
2023/07/30 04:44:04;;;;;;;8.80;5.07;;;19.70;1.00;;;;;;4990927;28;20226;-75
2023/07/30 04:46:30;;;;;;;10.60;5.73;;;19.60;1.00;;;;;;4991257;28;20688;-76
2023/07/30 04:48:56;;;;;;;13.10;6.60;;;19.60;1.00;;;;;;4990569;28;20179;-76
2023/07/30 04:51:21;;;;;;;13.80;5.97;;;19.50;1.00;;;;;;4990900;28;20484;-76
2023/07/30 04:53:46;;;;;;;13.13;5.77;;;19.60;1.00;;;;;;4989635;28;20187;-76
2023/07/30 04:56:12;;;;;;;7.10;5.40;;;19.60;1.00;;;;;;4991042;28;20190;-75
2023/07/30 04:58:37;;;;;;;7.87;5.70;;;19.60;1.00;;;;;;4991106;28;20182;-76
2023/07/30 05:01:03;;;;;;;8.30;6.13;;;19.60;1.00;;;;;;4991526;28;20179;-78
2023/07/30 05:03:29;;;;;;;9.50;6.40;;;19.60;1.00;;;;;;4989259;28;20572;-76
2023/07/30 05:05:54;;;;;;;10.93;6.80;;;19.70;1.00;;;;;;4990898;28;20174;-76
2023/07/30 05:08:20;;;;;;;12.80;6.67;;;19.70;1.00;;;;;;4990386;28;20195;-76
2023/07/30 05:10:45;;;;;;;8.07;6.07;;;19.70;1.00;;;;;;4990606;28;20175;-76
2023/07/30 05:13:12;;;;;;;9.70;6.47;;;19.70;1.00;;;;;;4989228;28;20198;-77
2023/07/30 05:15:38;;;;;;;11.47;6.60;;;19.70;1.00;;;;;;4989900;28;20645;-78
2023/07/30 05:18:04;;;;;;;9.67;6.23;;;19.60;1.00;;;;;;4990611;28;20493;-76
2023/07/30 05:20:29;;;;;;;8.33;6.17;;;19.60;1.00;;;;;;4985806;28;20218;-76
2023/07/30 05:22:55;;;;;;;10.20;6.30;;;19.50;1.00;;;;;;4989936;28;20239;-74
2023/07/30 05:25:20;;;;;;;9.47;6.50;;;19.60;1.00;;;;;;4990537;28;20669;-76
2023/07/30 05:27:46;;;;;;;13.83;6.63;;;19.50;1.00;;;;;;4988960;28;20203;-76
2023/07/30 05:30:11;;;;;;;8.93;6.37;;;19.50;1.00;;;;;;4989609;28;20183;-76
2023/07/30 05:32:37;;;;;;;12.53;6.80;;;19.60;1.00;;;;;;4990163;28;20658;-78
2023/07/30 05:35:02;;;;;;;10.70;6.80;;;19.70;1.00;;;;;;4991012;28;20179;-77
2023/07/30 05:37:28;;;;;;;10.87;7.40;;;19.70;1.00;;;;;;4993886;28;20229;-76
2023/07/30 05:39:53;;;;;;;11.33;7.63;;;19.60;1.00;;;;;;4989075;28;20183;-76
2023/07/30 05:42:19;;;;;;;12.37;8.60;;;19.70;1.00;;;;;;4988773;28;20225;-75
2023/07/30 05:44:44;;;;;;;11.93;8.80;;;19.70;1.00;;;;;;4989046;28;20694;-76
2023/07/30 05:47:10;;;;;;;10.77;8.40;;;19.60;1.00;;;;;;4990182;28;20194;-77
2023/07/30 05:49:35;;;;;;;10.73;7.60;;;19.70;1.00;;;;;;4989759;28;20202;-77
2023/07/30 05:52:01;;;;;;;12.60;8.20;;;19.80;1.00;;;;;;4987595;28;20186;-76
2023/07/30 05:54:26;;;;;;;12.30;7.97;;;19.90;1.00;;;;;;4989915;28;20205;-77
2023/07/30 05:56:53;;;;;;;12.00;7.80;;;19.80;1.00;;;;;;4990105;28;20196;-77
2023/07/30 05:59:19;;;;;;;9.77;7.00;;;19.90;1.00;;;;;;4990301;28;20171;-76
2023/07/30 06:01:45;;;;;;;14.00;8.00;;;19.80;1.00;;;;;;4990395;28;20468;-76
2023/07/30 06:04:10;;;;;;;10.07;6.73;;;19.90;1.00;;;;;;4989442;28;20556;-76
2023/07/30 06:06:36;;;;;;;10.03;7.37;;;20.00;1.00;;;;;;4989212;28;20211;-75
2023/07/30 06:09:01;;;;;;;10.27;6.40;;;20.00;1.00;;;;;;4990439;28;20168;-76
2023/07/30 06:11:27;;;;;;;8.50;7.10;;;20.00;1.00;;;;;;4988660;28;20186;-76
2023/07/30 06:13:53;;;;;;;8.93;6.87;;;20.20;1.00;;;;;;4987260;28;20175;-76
2023/07/30 06:16:20;;;;;;;11.37;6.37;;;20.40;1.00;;;;;;4989956;28;20414;-77
2023/07/30 06:18:46;;;;;;;8.17;6.20;;;20.40;1.00;;;;;;4989608;28;20191;-76
2023/07/30 06:21:11;;;;;;;6.93;5.97;;;20.60;1.00;;;;;;4988411;28;20430;-76
2023/07/30 06:23:37;;;;;;;7.33;5.10;;;20.70;1.00;;;;;;4989134;28;20207;-76
2023/07/30 06:26:02;;;;;;;7.50;5.53;;;20.90;1.00;;;;;;4987872;28;20233;-77
2023/07/30 06:28:28;;;;;;;12.80;5.23;;;20.90;1.00;;;;;;4983290;28;20222;-76
2023/07/30 06:30:53;;;;;;;6.67;5.40;;;20.80;1.00;;;;;;4988296;28;20203;-76
2023/07/30 06:33:19;;;;;;;7.20;5.90;;;20.70;1.00;;;;;;4989273;28;20189;-76
2023/07/30 06:35:45;;;;;;;6.83;5.20;;;20.80;1.00;;;;;;4989863;28;20179;-77
2023/07/30 06:38:10;;;;;;;7.20;5.50;;;20.90;1.00;;;;;;4989119;28;20437;-77
2023/07/30 06:40:36;;;;;;;8.80;5.40;;;21.00;1.00;;;;;;4987348;28;20187;-78
2023/07/30 06:43:01;;;;;;;6.53;5.50;;;21.10;1.00;;;;;;4988606;28;20278;-76
2023/07/30 06:45:27;;;;;;;8.97;5.53;;;21.20;1.00;;;;;;4989860;28;20226;-75
2023/07/30 06:47:53;;;;;;;10.20;5.70;;;21.30;1.00;;;;;;4989646;28;20202;-76
2023/07/30 06:50:19;;;;;;;7.50;5.90;;;21.50;1.00;;;;;;4988315;28;20426;-76
2023/07/30 06:52:44;;;;;;;6.43;5.80;;;21.50;1.00;;;;;;4988455;28;20658;-76
2023/07/30 06:55:10;;;;;;;7.33;5.23;;;21.70;1.00;;;;;;4987555;28;20183;-75
2023/07/30 06:57:35;;;;;;;7.83;4.73;;;21.80;1.00;;;;;;4988950;28;20199;-75
2023/07/30 07:00:02;;;;;;;8.73;5.13;;;21.90;1.00;;;;;;4988333;28;20187;-76
2023/07/30 07:02:28;;;;;;;6.03;4.50;;;21.60;1.00;;;;;;4989056;28;20572;-75
2023/07/30 07:04:54;;;;;;;6.67;4.30;;;21.60;1.00;;;;;;4990941;28;20440;-75
2023/07/30 07:07:20;;;;;;;7.60;4.97;;;21.70;1.00;;;;;;4989866;28;20207;-74
2023/07/30 07:09:46;;;;;;;6.27;4.23;;;21.70;1.00;;;;;;4991946;28;20430;-74
2023/07/30 07:12:11;;;;;;;5.53;4.23;;;21.60;1.00;;;;;;4989653;28;20178;-74
2023/07/30 07:14:37;;;;;;;13.63;4.80;;;21.50;1.00;;;;;;4990920;28;20599;-74
2023/07/30 07:17:03;;;;;;;6.10;4.03;;;21.80;1.00;;;;;;4991943;28;20193;-74
2023/07/30 07:19:28;;;;;;;7.30;4.50;;;21.20;1.00;;;;;;4991768;28;20523;-74
2023/07/30 07:21:54;;;;;;;7.43;4.77;;;21.20;1.00;;;;;;4990773;28;20171;-75
2023/07/30 07:24:19;;;;;;;6.10;4.50;;;21.10;1.00;;;;;;4987267;28;20605;-74
2023/07/30 07:26:45;;;;;;;8.93;4.83;;;21.00;1.00;;;;;;4990872;28;20199;-74
2023/07/30 07:29:11;;;;;;;11.03;5.00;;;20.90;1.00;;;;;;4989494;28;20263;-74
2023/07/30 07:31:36;;;;;;;6.20;4.73;;;21.00;1.00;;;;;;4991874;28;20186;-74
2023/07/30 07:34:02;;;;;;;7.90;4.90;;;20.90;1.00;;;;;;4991806;28;20262;-75
2023/07/30 07:36:27;;;;;;;10.00;5.07;;;20.90;1.00;;;;;;4991917;28;20665;-74
2023/07/30 07:38:53;;;;;;;8.00;5.30;;;20.90;1.00;;;;;;4991625;28;20237;-74
2023/07/30 07:41:18;;;;;;;6.17;4.20;;;20.80;1.00;;;;;;4991093;28;20175;-76
2023/07/30 07:43:46;;;;;;;5.50;4.90;;;20.70;1.00;;;;;;4996939;28;20313;-74
2023/07/30 07:46:14;;;;;;;5.63;4.77;;;20.70;1.00;;;;;;4992881;28;20676;-74
2023/07/30 07:48:43;;;;;;;6.37;4.80;;;20.70;1.00;;;;;;4989881;28;20468;-74
2023/07/30 07:51:10;;;;;;;5.88;4.28;;;20.80;1.00;;;;;;4987561;28;20448;-75
2023/07/30 07:53:36;;;;;;;6.03;4.03;;;20.70;1.00;;;;;;4987736;28;20175;-73
2023/07/30 07:56:03;;;;;;;6.60;4.17;;;20.80;1.00;;;;;;4984660;28;20441;-77
2023/07/30 07:58:29;;;;;;;4.40;3.63;;;20.90;1.00;;;;;;4992697;28;20438;-74
2023/07/30 08:00:55;;;;;;;4.67;4.00;;;21.00;1.00;;;;;;4991035;28;20948;-75
2023/07/30 08:03:21;;;;;;;4.70;3.73;;;21.10;1.00;;;;;;4992389;28;20462;-74
2023/07/30 08:05:47;;;;;;;4.73;3.90;;;21.40;1.00;;;;;;4992372;28;20429;-74
2023/07/30 08:08:13;;;;;;;7.00;4.40;;;21.70;1.00;;;;;;4991672;28;20210;-75
2023/07/30 08:10:39;;;;;;;8.20;3.93;;;22.00;1.00;;;;;;4991914;28;20183;-76
2023/07/30 08:13:05;;;;;;;5.13;3.37;;;22.50;1.00;;;;;;4992718;28;20180;-75
2023/07/30 08:15:30;;;;;;;5.53;3.70;;;22.70;1.00;;;;;;4992723;28;20435;-76
2023/07/30 08:17:56;;;;;;;4.83;3.23;;;23.00;1.00;;;;;;4991757;28;20707;-75
2023/07/30 08:20:21;;;;;;;9.63;3.80;;;23.30;1.00;;;;;;4993051;28;20179;-76
2023/07/30 08:22:47;;;;;;;4.70;3.70;;;23.10;1.00;;;;;;4992214;28;20211;-76
2023/07/30 08:25:12;;;;;;;4.67;3.47;;;23.30;1.00;;;;;;4992726;28;20783;-75
2023/07/30 08:27:38;;;;;;;5.90;3.83;;;23.10;1.00;;;;;;4991946;28;20247;-74
2023/07/30 08:30:04;;;;;;;6.27;3.73;;;23.20;1.00;;;;;;4992742;28;20210;-75
2023/07/30 08:32:29;;;;;;;5.90;3.80;;;23.20;1.00;;;;;;4990869;28;20187;-75
2023/07/30 08:34:55;;;;;;;5.33;3.40;;;23.40;1.00;;;;;;4992038;28;20182;-75
2023/07/30 08:37:20;;;;;;;6.10;3.70;;;23.70;1.00;;;;;;4992226;28;20318;-75
2023/07/30 08:39:46;;;;;;;9.53;3.60;;;24.10;1.00;;;;;;4991726;28;20244;-76
2023/07/30 08:42:11;;;;;;;8.70;3.60;;;24.20;1.00;;;;;;4992162;28;20170;-76
2023/07/30 08:44:37;;;;;;;5.23;3.30;;;24.80;1.00;;;;;;4991849;28;20208;-75
2023/07/30 08:47:02;;;;;;;7.90;3.47;;;25.30;1.00;;;;;;4991734;28;20194;-75
2023/07/30 08:49:32;;;;;;;6.60;3.30;;;25.70;1.00;;;;;;4992003;28;20171;-75
2023/07/30 08:51:59;;;;;;;11.43;3.13;;;26.00;1.00;;;;;;4991726;28;20167;-76
2023/07/30 08:54:28;;;;;;;4.60;2.93;;;26.10;1.00;;;;;;4991804;28;20487;-75
2023/07/30 08:56:54;;;;;;;7.30;3.50;;;26.30;1.00;;;;;;4991042;28;20453;-77
2023/07/30 08:59:20;;;;;;;5.20;3.10;;;27.10;1.00;;;;;;4991473;28;20418;-75
2023/07/30 09:01:49;;;;;;;4.90;3.20;;;27.80;1.00;;;;;;4991350;28;20265;-76
2023/07/30 09:04:17;;;;;;;5.37;2.47;;;27.40;1.00;;;;;;4991576;28;20461;-76
2023/07/30 09:06:43;;;;;;;6.03;2.80;;;26.60;1.00;;;;;;4987246;28;20942;-76
2023/07/30 09:09:10;;;;;;;4.80;3.53;;;26.70;1.00;;;;;;4987443;28;20434;-76
2023/07/30 09:11:36;;;;;;;3.70;2.60;;;27.30;1.00;;;;;;4987743;28;20271;-76
2023/07/30 09:14:02;;;;;;;7.50;2.80;;;27.70;1.00;;;;;;4989666;28;20658;-77
2023/07/30 09:16:28;;;;;;;7.03;2.53;;;27.10;1.00;;;;;;4987811;28;20178;-76
2023/07/30 09:18:54;;;;;;;4.63;2.70;;;27.10;1.00;;;;;;4987836;28;20175;-76
2023/07/30 09:21:28;;;;;;;3.40;2.40;;;26.80;1.00;;;;;;4990885;28;20178;-76
2023/07/30 09:23:54;;;;;;;4.43;2.57;;;26.70;1.00;;;;;;4987700;28;20549;-75
2023/07/30 09:26:19;;;;;;;5.47;2.80;;;26.80;1.00;;;;;;4988821;28;20441;-76
2023/07/30 09:28:45;;;;;;;4.60;2.70;;;26.70;1.00;;;;;;4992980;28;20175;-75
2023/07/30 09:31:10;;;;;;;6.70;3.00;;;26.80;1.00;;;;;;4988730;28;20268;-75
2023/07/30 09:33:40;;;;;;;5.50;3.00;;;26.30;1.00;;;;;;4988741;28;20182;-75
2023/07/30 09:36:08;;;;;;;4.07;2.90;;;26.20;1.00;;;;;;4986795;28;20609;-74
2023/07/30 09:38:39;;;;;;;5.40;2.70;;;26.10;1.00;;;;;;4988648;28;20834;-74
2023/07/30 09:41:05;;;;;;;5.33;2.53;;;26.20;1.00;;;;;;4987968;28;20468;-75
2023/07/30 09:43:34;;;;;;;4.40;3.00;;;26.60;1.00;;;;;;4989217;28;20493;-74
2023/07/30 09:46:04;;;;;;;6.07;2.90;;;26.60;1.00;;;;;;4987725;28;20226;-76
2023/07/30 09:48:34;;;;;;;4.70;2.63;;;26.80;1.00;;;;;;4988024;28;20688;-76
2023/07/30 09:51:03;;;;;;;6.00;2.60;;;26.90;1.00;;;;;;4989854;28;20433;-75
2023/07/30 09:53:34;;;;;;;9.03;2.73;;;27.40;1.00;;;;;;4987616;28;20457;-76
2023/07/30 09:56:01;;;;;;;4.17;2.67;;;29.00;1.00;;;;;;4988400;28;20760;-76
2023/07/30 09:58:26;;;;;;;4.43;2.80;;;29.50;1.00;;;;;;4989147;28;20556;-74
2023/07/30 10:00:53;;;;;;;4.00;2.90;;;28.80;1.00;;;;;;4989507;28;20194;-77
2023/07/30 10:03:19;;;;;;;7.43;2.80;;;27.80;1.00;;;;;;4989217;28;20293;-77
2023/07/30 10:05:46;;;;;;;4.40;2.43;;;26.30;1.00;;;;;;4987293;28;20328;-76
2023/07/30 10:08:20;;;;;;;4.10;2.90;;;23.30;1.00;;;;;;4983952;28;20293;-76
2023/07/30 10:10:47;;;;;;;4.43;2.73;;;24.80;1.00;;;;;;4983655;28;20544;-79
2023/07/30 10:13:14;;;;;;;4.50;2.70;;;24.50;1.00;;;;;;4986394;28;20863;-76
2023/07/30 10:15:39;;;;;;;4.93;2.70;;;26.90;1.00;;;;;;4988087;28;20441;-76
2023/07/30 10:18:05;;;;;;;4.10;2.70;;;24.40;1.00;;;;;;4996040;28;21186;-76
2023/07/30 10:20:31;;;;;;;7.30;3.07;;;24.80;1.00;;;;;;4988797;28;20193;-77
2023/07/30 10:22:58;;;;;;;4.60;3.47;;;26.00;1.00;;;;;;4984477;28;20210;-77
2023/07/30 10:25:45;;;;;;;4.20;2.70;;;27.20;1.00;;;;;;4988941;28;20450;-77
2023/07/30 10:28:37;;;;;;;3.10;1.93;;;29.10;1.00;;;;;;4980886;28;20487;-77
2023/07/30 10:31:13;;;;;;;3.97;2.43;;;29.90;1.00;;;;;;4986869;28;20452;-77
2023/07/30 10:33:53;;;;;;;4.03;2.10;;;30.90;1.00;;;;;;4989366;28;20185;-77
2023/07/30 10:36:42;;;;;;;3.90;2.50;;;32.20;1.00;;;;;;4988529;28;20265;-77
2023/07/30 10:39:13;;;;;;;7.00;2.47;;;32.30;1.00;;;;;;4991063;28;20265;-77
2023/07/30 10:41:38;;;;;;;3.20;2.22;;;32.10;1.00;;;;;;4992911;28;20292;-79
2023/07/30 10:44:04;;;;;;;3.67;2.17;;;30.90;1.00;;;;;;4993231;28;20286;-76
2023/07/30 10:46:30;;;;;;;4.22;2.08;;;30.60;1.00;;;;;;4991381;28;20233;-78
2023/07/30 10:48:55;;;;;;;3.67;1.80;;;30.60;1.00;;;;;;4993462;28;20186;-79
2023/07/30 10:51:21;;;;;;;3.95;1.95;;;30.00;1.00;;;;;;4993020;28;20182;-76
2023/07/30 10:53:48;;;;;;;3.23;2.00;;;29.20;1.00;;;;;;4991687;28;20657;-80
2023/07/30 10:56:16;;;;;;;4.50;2.20;;;27.30;1.00;;;;;;4992381;28;20305;-77
2023/07/30 10:58:43;;;;;;;4.43;1.80;;;27.20;1.00;;;;;;4993419;28;20191;-76
2023/07/30 11:01:09;;;;;;;3.50;1.97;;;26.40;1.00;;;;;;4992834;28;20675;-78
2023/07/30 11:03:35;;;;;;;9.30;2.13;;;25.70;1.00;;;;;;4991626;28;20237;-77
2023/07/30 11:06:02;;;;;;;4.73;1.80;;;25.10;1.00;;;;;;4992281;28;20269;-76
2023/07/30 11:08:41;;;;;;;4.60;2.30;;;25.00;1.00;;;;;;4991242;28;20457;-78
2023/07/30 11:11:09;;;;;;;3.70;1.83;;;25.30;1.00;;;;;;4992309;28;20429;-77
2023/07/30 11:13:40;;;;;;;3.07;2.20;;;26.30;1.00;;;;;;4992082;28;20523;-77
2023/07/30 11:16:07;;;;;;;4.07;2.43;;;27.80;1.00;;;;;;4991826;28;21006;-77
2023/07/30 11:18:34;;;;;;;4.47;2.37;;;28.60;1.00;;;;;;4990195;28;20484;-77
2023/07/30 11:21:10;;;;;;;2.80;2.00;;;28.30;1.00;;;;;;4991872;28;20441;-78
2023/07/30 11:23:37;;;;;;;4.30;2.10;;;28.00;1.00;;;;;;4991197;28;20552;-79
2023/07/30 11:26:04;;;;;;;4.83;2.33;;;28.30;1.00;;;;;;4991901;28;20460;-78
2023/07/30 11:28:32;;;;;;;6.10;2.27;;;29.40;1.00;;;;;;4991770;28;20576;-76
2023/07/30 11:31:00;;;;;;;3.10;1.83;;;29.40;1.00;;;;;;4990929;28;20171;-77
2023/07/30 11:33:27;;;;;;;4.57;2.13;;;28.50;1.00;;;;;;4989859;28;20186;-77
2023/07/30 11:35:55;;;;;;;4.27;2.30;;;28.00;1.00;;;;;;4991858;28;20183;-77
2023/07/30 11:38:22;;;;;;;4.30;2.10;;;27.80;1.00;;;;;;4991320;28;20202;-79
2023/07/30 11:40:48;;;;;;;3.70;1.90;;;27.50;1.00;;;;;;4991860;28;20270;-77
2023/07/30 11:43:14;;;;;;;3.87;2.10;;;27.60;1.00;;;;;;4991800;28;20737;-78
2023/07/30 11:45:39;;;;;;;4.67;2.20;;;27.80;1.00;;;;;;4991160;28;20179;-76
2023/07/30 11:48:09;;;;;;;4.30;2.00;;;27.70;1.00;;;;;;4989431;28;20294;-76
2023/07/30 11:50:48;;;;;;;3.50;2.23;;;28.20;1.00;;;;;;4989949;28;20261;-75
2023/07/30 11:53:15;;;;;;;4.53;2.00;;;29.90;1.00;;;;;;4990972;28;20265;-77
2023/07/30 11:55:42;;;;;;;4.33;2.00;;;30.70;1.00;;;;;;4991180;28;20673;-76
2023/07/30 11:58:09;;;;;;;4.90;1.90;;;30.10;1.00;;;;;;4991347;28;20200;-75
2023/07/30 12:00:40;;;;;;;4.80;2.00;;;30.00;1.00;;;;;;4990625;28;20175;-78
2023/07/30 12:03:13;;;;;;;4.23;2.40;;;29.20;1.00;;;;;;4989663;28;20212;-76
2023/07/30 12:05:40;;;;;;;3.90;2.13;;;28.20;1.00;;;;;;4990486;28;20190;-77
2023/07/30 12:08:12;;;;;;;7.23;1.90;;;27.30;1.00;;;;;;4990204;28;20225;-76
2023/07/30 12:10:43;;;;;;;6.97;2.23;;;26.60;1.00;;;;;;4989817;28;20561;-76
2023/07/30 12:13:16;;;;;;;3.70;1.80;;;26.70;1.00;;;;;;4989355;28;20951;-76
2023/07/30 12:16:02;;;;;;;5.00;2.30;;;28.20;1.00;;;;;;4990754;28;20484;-76
2023/07/30 12:18:28;;;;;;;4.40;2.27;;;29.00;1.00;;;;;;4985807;28;20679;-76
2023/07/30 12:20:55;;;;;;;6.00;2.33;;;30.20;1.00;;;;;;4990079;28;20284;-76
2023/07/30 12:23:20;;;;;;;11.63;2.53;;;30.30;1.00;;;;;;4989494;28;20199;-77
2023/07/30 12:25:46;;;;;;;4.90;2.00;;;31.20;1.00;;;;;;4990008;28;20715;-76
2023/07/30 12:28:12;;;;;;;3.90;1.92;;;32.80;1.00;;;;;;4989324;28;20194;-77
2023/07/30 12:30:38;;;;;;;4.05;1.90;;;33.80;1.00;;;;;;4990346;28;20178;-76
2023/07/30 12:33:05;;;;;;;4.55;1.75;;;33.80;1.00;;;;;;4989354;28;20277;-79
2023/07/30 12:35:31;;;;;;;4.13;1.70;;;32.40;1.00;;;;;;4990561;28;20195;-79
2023/07/30 12:37:57;;;;;;;3.97;1.92;;;31.20;1.00;;;;;;4989652;28;20206;-76
2023/07/30 12:40:23;;;;;;;6.93;1.90;;;31.50;1.00;;;;;;4988982;28;20715;-77
2023/07/30 12:42:48;;;;;;;6.97;2.15;;;32.40;1.00;;;;;;4989929;28;20226;-76
2023/07/30 12:45:14;;;;;;;4.22;2.00;;;31.50;1.00;;;;;;4989619;28;20261;-77
2023/07/30 12:47:40;;;;;;;3.80;2.00;;;30.40;1.00;;;;;;4990422;28;20231;-77
2023/07/30 12:50:06;;;;;;;3.42;1.77;;;30.70;1.00;;;;;;4987809;28;20171;-77
2023/07/30 12:52:33;;;;;;;4.25;2.13;;;31.10;1.00;;;;;;4988667;28;20178;-77